Time;durP1;ratioP1;P1;durP2;ratioP2;P2;SDS_P1;SDS_P2;PMS_P1;PMS_P2;Temp;Humidity;BMP_temperature;BMP_pressure;BME280_temperature;BME280_humidity;BME280_pressure;Samples;Min_cycle;Max_cycle;Signal;HPM_P1;HPM_P2
2020/12/02 00:00:38;;;;;;;1999.90;999.90;;;5.80;99.90;;;;;;4997453;28;20169;-79
2020/12/02 00:03:13;;;;;;;1999.90;999.90;;;5.80;99.90;;;;;;4979595;28;20171;-80
2020/12/02 00:05:44;;;;;;;1999.90;999.90;;;5.70;99.90;;;;;;4997640;28;20162;-79
2020/12/02 00:08:15;;;;;;;1999.90;999.90;;;5.70;99.90;;;;;;4996865;28;20178;-79
2020/12/02 00:10:41;;;;;;;1999.90;999.90;;;5.60;99.90;;;;;;4979536;28;20192;-80
2020/12/02 00:13:14;;;;;;;1999.90;999.90;;;5.60;99.90;;;;;;4980096;28;20162;-79
2020/12/02 00:15:39;;;;;;;1999.90;999.90;;;5.70;99.90;;;;;;4996818;28;20490;-80
2020/12/02 00:18:05;;;;;;;1999.90;999.90;;;5.70;99.90;;;;;;4996811;28;20182;-80
2020/12/02 00:20:32;;;;;;;1999.90;999.90;;;5.80;99.90;;;;;;4979797;28;20769;-79
2020/12/02 00:22:57;;;;;;;1999.90;999.90;;;5.80;99.90;;;;;;4996790;28;20182;-80
2020/12/02 00:25:23;;;;;;;1999.90;999.90;;;5.70;99.90;;;;;;4979039;28;20178;-79
2020/12/02 00:27:49;;;;;;;1999.90;999.90;;;5.70;99.90;;;;;;4979244;28;20170;-80
2020/12/02 00:30:16;;;;;;;1999.90;999.90;;;5.70;99.90;;;;;;4996592;28;20186;-80
2020/12/02 00:32:45;;;;;;;1999.90;999.90;;;5.70;99.90;;;;;;5065241;23;20230;-80
2020/12/02 00:35:20;;;;;;;1999.90;999.90;;;5.80;99.90;;;;;;4997358;28;20630;-80
2020/12/02 00:37:46;;;;;;;1999.90;999.90;;;5.70;99.90;;;;;;4997803;28;20147;-79
2020/12/02 00:40:15;;;;;;;1999.90;999.90;;;5.70;99.90;;;;;;4997765;28;20173;-80
2020/12/02 00:42:40;;;;;;;1999.90;999.90;;;5.70;99.90;;;;;;4979899;28;20171;-79
2020/12/02 00:45:08;;;;;;;1999.90;999.90;;;5.70;99.90;;;;;;4998047;28;20541;-80
2020/12/02 00:47:35;;;;;;;1999.90;999.90;;;5.70;99.90;;;;;;4997655;28;20171;-79
2020/12/02 00:50:01;;;;;;;1999.90;999.90;;;5.70;99.90;;;;;;4980054;28;20198;-79
2020/12/02 00:52:26;;;;;;;1999.90;999.90;;;5.70;99.90;;;;;;4997918;28;20177;-79
2020/12/02 00:54:53;;;;;;;1999.90;999.90;;;5.70;99.90;;;;;;4980168;28;20250;-80
2020/12/02 00:57:28;;;;;;;1999.90;999.90;;;5.70;99.90;;;;;;4997112;28;20546;-80
2020/12/02 00:59:56;;;;;;;1999.90;999.90;;;5.70;99.90;;;;;;4998091;28;20162;-80
2020/12/02 01:02:34;;;;;;;1999.90;999.90;;;5.70;99.90;;;;;;4997729;28;20220;-80
2020/12/02 01:05:00;;;;;;;1999.90;999.90;;;5.60;99.90;;;;;;4997351;28;20216;-80
2020/12/02 01:07:27;;;;;;;1999.90;999.90;;;5.60;99.90;;;;;;4997088;28;20178;-80
2020/12/02 01:09:53;;;;;;;1999.90;999.90;;;5.60;99.90;;;;;;4997114;28;20187;-80
2020/12/02 01:12:19;;;;;;;1999.90;999.90;;;5.70;99.90;;;;;;4997503;28;20170;-80
2020/12/02 01:14:46;;;;;;;1999.90;999.90;;;5.70;99.90;;;;;;4997053;28;20167;-80
2020/12/02 01:17:12;;;;;;;1999.90;999.90;;;5.70;99.90;;;;;;4997440;28;20169;-80
2020/12/02 01:19:38;;;;;;;1999.90;999.90;;;5.70;99.90;;;;;;4997090;28;20181;-80
2020/12/02 01:22:21;;;;;;;1999.90;999.90;;;5.70;99.90;;;;;;4997134;28;20174;-80
2020/12/02 01:25:06;;;;;;;1999.90;999.90;;;5.70;99.90;;;;;;4979861;28;20178;-80
2020/12/02 01:27:50;;;;;;;1999.90;999.90;;;5.80;99.90;;;;;;4979463;28;20258;-80
2020/12/02 01:30:18;;;;;;;1999.90;999.90;;;5.80;99.90;;;;;;4997494;28;20217;-80
2020/12/02 01:32:45;;;;;;;1999.90;999.90;;;5.80;99.90;;;;;;4979299;28;20182;-79
2020/12/02 01:35:19;;;;;;;1999.90;999.90;;;5.70;99.90;;;;;;4997582;28;20166;-79
2020/12/02 01:37:46;;;;;;;1999.90;999.90;;;5.70;99.90;;;;;;4997673;28;20175;-80
2020/12/02 01:40:25;;;;;;;1999.90;999.90;;;5.70;99.90;;;;;;4997390;28;20533;-80
2020/12/02 01:43:01;;;;;;;1999.90;999.90;;;5.80;99.90;;;;;;4996786;28;20158;-80
2020/12/02 01:45:35;;;;;;;1999.90;999.90;;;5.80;99.90;;;;;;4997519;28;20174;-80
2020/12/02 01:48:12;;;;;;;1999.90;999.90;;;5.70;99.90;;;;;;4979417;28;20163;-80
2020/12/02 01:50:45;;;;;;;1999.90;999.90;;;5.80;99.90;;;;;;4997721;28;20213;-80
2020/12/02 01:53:24;;;;;;;1999.90;999.90;;;5.70;99.90;;;;;;4997563;28;20151;-80
2020/12/02 01:55:57;;;;;;;1999.90;999.90;;;5.70;99.90;;;;;;4997155;28;20150;-80
2020/12/02 01:58:37;;;;;;;1999.90;999.90;;;5.70;99.90;;;;;;4997164;28;20151;-80
2020/12/02 02:01:09;;;;;;;1999.90;999.90;;;5.70;99.90;;;;;;4979616;28;20170;-78
2020/12/02 02:03:37;;;;;;;1999.90;999.90;;;5.80;99.90;;;;;;4996983;28;20159;-80
2020/12/02 02:06:16;;;;;;;1999.90;999.90;;;5.70;99.90;;;;;;4996893;28;20170;-80
2020/12/02 02:08:42;;;;;;;1999.90;999.90;;;5.70;99.90;;;;;;4982611;28;20684;-80
2020/12/02 02:11:12;;;;;;;1999.90;999.90;;;5.70;99.90;;;;;;4982874;28;20202;-80
2020/12/02 02:13:46;;;;;;;1999.90;999.90;;;5.70;99.90;;;;;;4983278;28;20181;-80
2020/12/02 02:16:43;;;;;;;1999.90;999.90;;;5.80;99.90;;;;;;5000599;28;20172;-80
2020/12/02 02:19:14;;;;;;;1999.90;999.90;;;5.80;99.90;;;;;;4993151;28;20182;-80
2020/12/02 02:21:51;;;;;;;1999.90;999.90;;;5.80;99.90;;;;;;5000362;28;20166;-80
2020/12/02 02:24:17;;;;;;;1999.90;999.90;;;5.70;99.90;;;;;;4982882;28;20162;-80
2020/12/02 02:26:48;;;;;;;1999.90;999.90;;;5.70;99.90;;;;;;5000029;28;20690;-80
2020/12/02 02:29:19;;;;;;;1999.90;999.90;;;5.70;99.90;;;;;;4982532;28;20505;-80
2020/12/02 02:32:01;;;;;;;1999.90;999.90;;;5.70;99.90;;;;;;5000041;28;20159;-80
2020/12/02 02:34:32;;;;;;;1999.90;999.90;;;5.60;99.90;;;;;;4982377;28;20233;-80
2020/12/02 02:37:00;;;;;;;1999.90;999.90;;;5.70;99.90;;;;;;5000105;28;20672;-80
2020/12/02 02:39:26;;;;;;;1999.90;999.90;;;5.70;99.90;;;;;;4999767;28;20634;-80
2020/12/02 02:42:02;;;;;;;1999.90;999.90;;;5.60;99.90;;;;;;5000059;28;20186;-80
2020/12/02 02:44:28;;;;;;;1999.90;999.90;;;5.60;99.90;;;;;;4999302;28;20554;-80
2020/12/02 02:46:54;;;;;;;1999.90;999.90;;;5.70;99.90;;;;;;5000338;28;20159;-80
2020/12/02 02:49:21;;;;;;;1999.90;999.90;;;5.70;99.90;;;;;;4999595;28;20394;-80
2020/12/02 02:51:47;;;;;;;1999.90;999.90;;;5.70;99.90;;;;;;5000152;28;20178;-80
2020/12/02 02:54:13;;;;;;;1999.90;999.90;;;5.70;99.90;;;;;;4981940;28;20181;-80
2020/12/02 02:56:39;;;;;;;1999.90;999.90;;;5.70;99.90;;;;;;5000157;28;20558;-80
2020/12/02 02:59:05;;;;;;;1999.90;999.90;;;5.70;99.90;;;;;;4999681;28;20169;-80
2020/12/02 03:01:35;;;;;;;1999.90;999.90;;;5.70;99.90;;;;;;4999789;28;20430;-80
2020/12/02 03:04:01;;;;;;;1999.90;999.90;;;5.70;99.90;;;;;;4999728;28;20158;-80
2020/12/02 03:06:26;;;;;;;1999.90;999.90;;;5.70;99.90;;;;;;4981760;28;20252;-80
2020/12/02 03:08:52;;;;;;;1999.90;999.90;;;5.70;99.90;;;;;;4999391;28;20282;-80
2020/12/02 03:11:19;;;;;;;1999.90;999.90;;;5.60;99.90;;;;;;4982145;28;20237;-80
2020/12/02 03:13:50;;;;;;;1999.90;999.90;;;5.70;99.90;;;;;;4982099;28;20166;-80
2020/12/02 03:16:38;;;;;;;1999.90;999.90;;;5.60;99.90;;;;;;4999258;28;20225;-80
2020/12/02 03:19:10;;;;;;;1999.90;999.90;;;5.70;99.90;;;;;;4998811;28;20166;-80
2020/12/02 03:21:36;;;;;;;1999.90;999.90;;;5.70;99.90;;;;;;4981630;28;20673;-80
2020/12/02 03:24:03;;;;;;;1999.90;999.90;;;5.70;99.90;;;;;;4999262;28;20181;-80
2020/12/02 03:26:30;;;;;;;1999.90;999.90;;;5.70;99.90;;;;;;4998916;28;20252;-80
2020/12/02 03:28:55;;;;;;;1999.90;999.90;;;5.70;99.90;;;;;;4999156;28;20262;-80
2020/12/02 03:31:22;;;;;;;1999.90;999.90;;;5.80;99.90;;;;;;4981732;28;20237;-80
2020/12/02 03:33:48;;;;;;;1999.90;999.90;;;5.80;99.90;;;;;;4998980;28;20190;-80
2020/12/02 03:36:18;;;;;;;1999.90;999.90;;;5.70;99.90;;;;;;4999197;28;20169;-80
2020/12/02 03:38:44;;;;;;;1999.90;999.90;;;5.60;99.90;;;;;;4998663;28;20386;-80
2020/12/02 03:41:11;;;;;;;1999.90;999.90;;;5.60;99.90;;;;;;4999339;28;20171;-80
2020/12/02 03:43:37;;;;;;;1999.90;999.90;;;5.70;99.90;;;;;;4998701;28;20198;-80
2020/12/02 03:46:03;;;;;;;1999.90;999.90;;;5.70;99.90;;;;;;4998950;28;20527;-80
2020/12/02 03:48:28;;;;;;;1999.90;999.90;;;5.70;99.90;;;;;;4999154;28;20297;-80
2020/12/02 03:50:54;;;;;;;1999.90;999.90;;;5.70;99.90;;;;;;4981303;28;20229;-80
2020/12/02 03:53:20;;;;;;;1999.90;999.90;;;5.70;99.90;;;;;;4999368;28;20761;-79
2020/12/02 03:55:46;;;;;;;1999.90;999.90;;;5.70;99.90;;;;;;4999025;28;20163;-80
2020/12/02 03:58:12;;;;;;;1999.90;999.90;;;5.70;99.90;;;;;;4999095;28;20159;-80
2020/12/02 04:00:38;;;;;;;1999.90;999.90;;;5.70;99.90;;;;;;4998104;28;20250;-80
2020/12/02 04:03:05;;;;;;;1999.90;999.90;;;5.70;99.90;;;;;;4980865;28;20202;-80
2020/12/02 04:05:30;;;;;;;1999.90;999.90;;;5.70;99.90;;;;;;4998974;28;20170;-80
2020/12/02 04:07:56;;;;;;;1999.90;999.90;;;5.80;99.90;;;;;;4981046;28;20542;-80
2020/12/02 04:10:22;;;;;;;1999.90;999.90;;;5.80;99.90;;;;;;4981454;28;20595;-80
2020/12/02 04:12:48;;;;;;;1999.90;999.90;;;5.80;99.90;;;;;;4980874;28;20789;-80
2020/12/02 04:15:15;;;;;;;1999.90;999.90;;;5.70;99.90;;;;;;4980715;28;20170;-80
2020/12/02 04:17:42;;;;;;;1999.90;999.90;;;5.70;99.90;;;;;;4998344;28;20163;-80
2020/12/02 04:20:08;;;;;;;1999.90;999.90;;;5.70;99.90;;;;;;4998120;28;20515;-80
2020/12/02 04:22:34;;;;;;;1999.90;999.90;;;5.70;99.90;;;;;;4998623;28;20190;-80
2020/12/02 04:25:00;;;;;;;1999.90;999.90;;;5.70;99.90;;;;;;4999281;28;20175;-80
2020/12/02 04:27:25;;;;;;;1999.90;999.90;;;5.70;99.90;;;;;;4981454;28;20409;-80
2020/12/02 04:29:51;;;;;;;1999.90;999.90;;;5.60;99.90;;;;;;4997839;28;20450;-80
2020/12/02 04:32:17;;;;;;;1999.90;999.90;;;5.60;99.90;;;;;;4979830;28;20281;-80
2020/12/02 04:34:42;;;;;;;1999.90;999.90;;;5.60;99.90;;;;;;4997276;28;20237;-80
2020/12/02 04:37:08;;;;;;;1999.90;999.90;;;5.60;99.90;;;;;;4998158;28;20571;-80
2020/12/02 04:39:34;;;;;;;1999.90;999.90;;;5.70;99.90;;;;;;4998316;28;20209;-81
2020/12/02 04:41:59;;;;;;;1999.90;999.90;;;5.70;99.90;;;;;;4980222;28;20224;-80
2020/12/02 04:44:26;;;;;;;1999.90;999.90;;;5.60;99.90;;;;;;4998077;28;20170;-80
2020/12/02 04:46:56;;;;;;;1999.90;999.90;;;5.50;99.90;;;;;;4997318;28;20730;-80
2020/12/02 04:49:29;;;;;;;1999.90;999.90;;;5.60;99.90;;;;;;4980049;28;20534;-80
2020/12/02 04:52:04;;;;;;;1999.90;999.90;;;5.60;99.90;;;;;;4997145;28;20166;-80
2020/12/02 04:54:36;;;;;;;1999.90;999.90;;;5.60;99.90;;;;;;4979746;28;20162;-80
2020/12/02 04:57:01;;;;;;;1999.90;999.90;;;5.50;99.90;;;;;;4997576;28;20171;-80
2020/12/02 04:59:35;;;;;;;1999.90;999.90;;;5.60;99.90;;;;;;4997956;28;20533;-80
2020/12/02 05:02:01;;;;;;;1999.90;999.90;;;5.60;99.90;;;;;;4997501;28;20174;-80
2020/12/02 05:04:31;;;;;;;1999.90;999.90;;;5.60;99.90;;;;;;4997621;28;20167;-80
2020/12/02 05:07:17;;;;;;;1999.90;999.90;;;5.60;99.90;;;;;;4997397;28;20158;-80
2020/12/02 05:10:21;;;;;;;1999.90;999.90;;;5.60;99.90;;;;;;4997685;28;20555;-80
2020/12/02 05:12:47;;;;;;;1999.90;999.90;;;5.60;99.90;;;;;;4992856;28;20193;-80
2020/12/02 05:15:28;;;;;;;1999.90;999.90;;;5.70;99.90;;;;;;4980398;28;20257;-80
2020/12/02 05:18:02;;;;;;;1999.90;999.90;;;5.60;99.90;;;;;;4980809;28;20260;-80
2020/12/02 05:20:28;;;;;;;1999.90;999.90;;;5.60;99.90;;;;;;4998381;28;20172;-80
2020/12/02 05:22:54;;;;;;;1999.90;999.90;;;5.60;99.90;;;;;;4980329;28;20166;-78
2020/12/02 05:25:31;;;;;;;1999.90;999.90;;;5.50;99.90;;;;;;4998167;28;20292;-80
2020/12/02 05:28:22;;;;;;;1999.90;999.90;;;5.50;99.90;;;;;;4981662;28;20201;-80
2020/12/02 05:30:48;;;;;;;1999.90;999.90;;;5.50;99.90;;;;;;4997395;28;20178;-80
2020/12/02 05:33:19;;;;;;;1999.90;999.90;;;5.50;99.90;;;;;;4997102;28;20225;-80
2020/12/02 05:35:53;;;;;;;1999.90;999.90;;;5.50;99.90;;;;;;4997345;28;20189;-80
2020/12/02 05:38:34;;;;;;;1999.90;999.90;;;5.40;99.90;;;;;;4997997;28;20215;-80
2020/12/02 05:41:03;;;;;;;1999.90;999.90;;;5.40;99.90;;;;;;4980384;28;20541;-80
2020/12/02 05:43:36;;;;;;;1999.90;999.90;;;5.40;99.90;;;;;;5000311;28;20626;-80
2020/12/02 05:46:02;;;;;;;1999.90;999.90;;;5.40;99.90;;;;;;4983573;28;20278;-80
2020/12/02 05:48:35;;;;;;;1999.90;999.90;;;5.50;99.90;;;;;;4983214;28;20657;-80
2020/12/02 05:51:02;;;;;;;1999.90;999.90;;;5.50;99.90;;;;;;5001197;28;20187;-80
2020/12/02 05:53:30;;;;;;;1999.90;999.90;;;5.50;99.90;;;;;;4983613;28;20174;-80
2020/12/02 05:55:57;;;;;;;1999.90;999.90;;;5.50;99.90;;;;;;4983655;28;20302;-79
2020/12/02 05:58:30;;;;;;;1999.90;999.90;;;5.60;99.90;;;;;;4983576;28;20255;-80
2020/12/02 06:00:57;;;;;;;1999.90;999.90;;;5.60;99.90;;;;;;4983273;28;20650;-80
2020/12/02 06:03:35;;;;;;;1999.90;999.90;;;5.50;99.90;;;;;;5000981;28;20174;-80
2020/12/02 06:06:03;;;;;;;1999.90;999.90;;;5.50;99.90;;;;;;4983749;28;20175;-80
2020/12/02 06:08:33;;;;;;;1999.90;999.90;;;5.60;99.90;;;;;;4983205;28;20257;-80
2020/12/02 06:11:18;;;;;;;1999.90;999.90;;;5.60;99.90;;;;;;4984174;28;20281;-80
2020/12/02 06:13:48;;;;;;;1999.90;999.90;;;5.70;99.90;;;;;;5000937;28;20225;-80
2020/12/02 06:16:34;;;;;;;1999.90;999.90;;;5.60;99.90;;;;;;5000588;28;20167;-80
2020/12/02 06:19:23;;;;;;;1999.90;999.90;;;5.60;99.90;;;;;;5000964;28;20234;-80
2020/12/02 06:22:00;;;;;;;1999.90;999.90;;;5.60;99.90;;;;;;4955823;28;20185;-80
2020/12/02 06:24:32;;;;;;;1999.90;999.90;;;5.60;99.90;;;;;;4983448;28;20159;-80
2020/12/02 06:26:58;;;;;;;1999.90;999.90;;;5.60;99.90;;;;;;5000467;28;20515;-80
2020/12/02 06:29:31;;;;;;;1999.90;999.90;;;5.60;99.90;;;;;;5000708;28;20170;-80
2020/12/02 06:32:20;;;;;;;1999.90;999.90;;;5.60;99.90;;;;;;4983324;28;20342;-80
2020/12/02 06:34:49;;;;;;;1999.90;999.90;;;5.50;99.90;;;;;;4982944;28;20245;-80
2020/12/02 06:37:21;;;;;;;1999.90;999.90;;;5.50;99.90;;;;;;4982455;28;20638;-80
2020/12/02 06:39:59;;;;;;;1999.90;999.90;;;5.50;99.90;;;;;;5000572;28;20169;-80
2020/12/02 06:42:44;;;;;;;1999.90;999.90;;;5.50;99.90;;;;;;4982234;28;20513;-80
2020/12/02 06:45:24;;;;;;;1999.90;999.90;;;5.40;99.90;;;;;;4981705;28;20254;-80
2020/12/02 06:47:50;;;;;;;1999.90;999.90;;;5.50;99.90;;;;;;4999192;28;20158;-80
2020/12/02 06:50:21;;;;;;;1999.90;999.90;;;5.50;99.90;;;;;;4981664;28;20217;-80
2020/12/02 06:52:46;;;;;;;1999.90;999.90;;;5.50;99.90;;;;;;4981787;28;20208;-80
2020/12/02 06:55:23;;;;;;;1999.90;999.90;;;5.50;99.90;;;;;;4998430;28;20583;-80
2020/12/02 06:57:59;;;;;;;1999.90;999.90;;;5.40;99.90;;;;;;4980770;28;20174;-80
2020/12/02 07:00:31;;;;;;;1999.90;999.90;;;5.40;99.90;;;;;;4999364;28;20159;-81
2020/12/02 07:03:02;;;;;;;1999.90;999.90;;;5.40;99.90;;;;;;4999297;28;20213;-80
2020/12/02 07:05:41;;;;;;;1999.90;999.90;;;5.40;99.90;;;;;;4981628;28;20170;-80
2020/12/02 07:08:27;;;;;;;1999.90;999.90;;;5.40;99.90;;;;;;4981330;28;20739;-80
2020/12/02 07:11:01;;;;;;;1999.90;999.90;;;5.40;99.90;;;;;;4981170;28;20190;-81
2020/12/02 07:13:33;;;;;;;1999.90;999.90;;;5.50;99.90;;;;;;4981157;28;20166;-81
2020/12/02 07:16:29;;;;;;;1999.90;999.90;;;5.40;99.90;;;;;;4966597;28;20206;-80
2020/12/02 07:19:12;;;;;;;1999.90;999.90;;;5.40;99.90;;;;;;4998468;28;20646;-80
2020/12/02 07:21:59;;;;;;;1999.90;999.90;;;5.30;99.90;;;;;;4980967;28;20202;-80
2020/12/02 07:24:52;;;;;;;1999.90;999.90;;;5.30;99.90;;;;;;4998820;28;20163;-80
2020/12/02 07:27:24;;;;;;;1999.90;999.90;;;5.20;99.90;;;;;;4970615;28;20185;-80
2020/12/02 07:30:04;;;;;;;1999.90;999.90;;;5.20;99.90;;;;;;4980499;28;20281;-80
2020/12/02 07:32:29;;;;;;;1999.90;999.90;;;5.20;99.90;;;;;;4998342;28;20189;-80
2020/12/02 07:35:11;;;;;;;1999.90;999.90;;;5.20;99.90;;;;;;4980625;28;20170;-81
2020/12/02 07:37:43;;;;;;;1999.90;999.90;;;5.30;99.90;;;;;;4997474;28;20194;-80
2020/12/02 07:40:35;;;;;;;1999.90;999.90;;;5.30;99.90;;;;;;4980075;28;20162;-79
2020/12/02 07:43:10;;;;;;;1999.90;999.90;;;5.30;99.90;;;;;;4997616;28;20161;-81
2020/12/02 07:45:39;;;;;;;1999.90;999.90;;;5.40;99.90;;;;;;4997592;28;20162;-81
2020/12/02 07:48:26;;;;;;;1999.90;999.90;;;5.30;99.90;;;;;;4980079;28;20261;-80
2020/12/02 07:51:16;;;;;;;1999.90;999.90;;;5.40;99.90;;;;;;4979559;28;20693;-81
2020/12/02 07:53:51;;;;;;;1999.90;999.90;;;5.30;99.90;;;;;;4979697;28;20201;-79
2020/12/02 07:56:23;;;;;;;1999.90;999.90;;;5.30;99.90;;;;;;4979821;28;20220;-80
2020/12/02 07:58:51;;;;;;;1999.90;999.90;;;5.40;99.90;;;;;;4980756;28;20194;-81
2020/12/02 08:01:36;;;;;;;1999.90;999.90;;;5.40;99.90;;;;;;4980285;28;20174;-81
2020/12/02 08:04:20;;;;;;;1999.90;999.90;;;5.40;99.90;;;;;;4998184;28;20159;-81
2020/12/02 08:06:57;;;;;;;1999.90;999.90;;;5.30;99.90;;;;;;4997766;28;20166;-81
2020/12/02 08:09:25;;;;;;;1999.90;999.90;;;5.20;99.90;;;;;;4980488;28;20166;-81
2020/12/02 08:12:14;;;;;;;1999.90;999.90;;;5.20;99.90;;;;;;4980475;28;20566;-79
2020/12/02 08:14:47;;;;;;;1999.90;999.90;;;5.20;99.90;;;;;;4979135;28;20163;-79
2020/12/02 08:17:19;;;;;;;1999.90;999.90;;;5.20;99.90;;;;;;4979850;28;20197;-79
2020/12/02 08:19:51;;;;;;;1999.90;999.90;;;5.20;99.90;;;;;;4996928;28;20151;-80
2020/12/02 08:22:21;;;;;;;1999.90;999.90;;;5.10;99.90;;;;;;4997838;28;20162;-79
2020/12/02 08:24:47;;;;;;;1999.90;999.90;;;5.10;99.90;;;;;;4978695;28;20233;-79
2020/12/02 08:27:16;;;;;;;1999.90;999.90;;;5.00;99.90;;;;;;4979501;28;20171;-79
2020/12/02 08:29:49;;;;;;;1999.90;999.90;;;5.00;99.90;;;;;;4996579;28;20169;-79
2020/12/02 08:32:37;;;;;;;1999.90;999.90;;;5.10;99.90;;;;;;4980341;28;20189;-79
2020/12/02 08:35:23;;;;;;;1999.90;999.90;;;5.30;99.90;;;;;;4979641;28;20162;-79
2020/12/02 08:37:58;;;;;;;1999.90;999.90;;;5.30;99.90;;;;;;4979258;28;20253;-79
2020/12/02 08:40:58;;;;;;;1999.90;999.90;;;5.30;99.90;;;;;;4996483;28;20525;-79
2020/12/02 08:43:47;;;;;;;1999.90;999.90;;;5.30;99.90;;;;;;4996427;28;20147;-80
2020/12/02 08:46:22;;;;;;;1999.90;999.90;;;5.20;99.90;;;;;;4978507;28;20245;-79
2020/12/02 08:48:51;;;;;;;1999.90;999.90;;;5.20;99.90;;;;;;4978623;28;20155;-79
2020/12/02 08:51:21;;;;;;;1999.90;999.90;;;5.20;99.90;;;;;;4978639;28;20212;-78
2020/12/02 08:53:56;;;;;;;1999.90;999.90;;;5.20;99.90;;;;;;4996244;28;20162;-78
2020/12/02 08:56:25;;;;;;;1999.90;999.90;;;5.20;99.90;;;;;;4978302;28;20193;-78
2020/12/02 08:58:51;;;;;;;1999.90;999.90;;;5.20;99.90;;;;;;4978127;28;20221;-79
2020/12/02 09:01:16;;;;;;;1999.90;999.90;;;5.20;99.90;;;;;;4996518;28;20178;-78
2020/12/02 09:03:48;;;;;;;1999.90;999.90;;;5.30;99.90;;;;;;4979547;28;20245;-80
2020/12/02 09:06:22;;;;;;;1999.90;999.90;;;5.20;99.90;;;;;;4980079;28;20504;-78
2020/12/02 09:08:51;;;;;;;1999.90;999.90;;;5.20;99.90;;;;;;4979291;28;20171;-79
2020/12/02 09:11:22;;;;;;;1999.90;999.90;;;5.30;99.90;;;;;;4980122;28;20198;-79
2020/12/02 09:13:51;;;;;;;1999.90;999.90;;;5.30;99.90;;;;;;4978880;28;20318;-78
2020/12/02 09:16:31;;;;;;;1999.90;999.90;;;5.30;99.90;;;;;;4979446;28;20178;-79
2020/12/02 09:19:01;;;;;;;1999.90;999.90;;;5.30;99.90;;;;;;4996533;28;20158;-79
2020/12/02 09:21:31;;;;;;;1999.90;999.90;;;5.30;99.90;;;;;;4980019;28;20649;-79
2020/12/02 09:24:00;;;;;;;1999.90;999.90;;;5.30;99.90;;;;;;4978815;28;20185;-79
2020/12/02 09:26:33;;;;;;;1999.90;999.90;;;5.30;99.90;;;;;;4996286;28;20166;-79
2020/12/02 09:28:59;;;;;;;1999.90;999.90;;;5.30;99.90;;;;;;4979386;28;20171;-78
2020/12/02 09:31:30;;;;;;;1999.90;999.90;;;5.30;99.90;;;;;;4979788;28;20285;-77
2020/12/02 09:33:57;;;;;;;1999.90;999.90;;;5.40;99.90;;;;;;4979052;28;20389;-78
2020/12/02 09:36:23;;;;;;;1999.90;999.90;;;5.30;99.90;;;;;;4979107;28;20170;-79
2020/12/02 09:38:51;;;;;;;1999.90;999.90;;;5.40;99.90;;;;;;4978990;28;20657;-79
2020/12/02 09:41:40;;;;;;;1999.90;999.90;;;5.50;99.90;;;;;;4978441;28;20189;-80
2020/12/02 09:44:32;;;;;;;1999.90;999.90;;;5.40;99.90;;;;;;4978919;28;20161;-78
2020/12/02 09:47:11;;;;;;;1999.90;999.90;;;5.30;99.90;;;;;;4996989;28;20198;-78
2020/12/02 09:49:42;;;;;;;1999.90;999.90;;;5.30;99.90;;;;;;4978768;28;20657;-78
2020/12/02 09:52:07;;;;;;;1999.90;999.90;;;5.30;99.90;;;;;;4988885;28;20158;-78
2020/12/02 09:54:41;;;;;;;1999.90;999.90;;;5.20;99.90;;;;;;4997306;28;20170;-79
2020/12/02 09:57:19;;;;;;;1999.90;999.90;;;5.30;99.90;;;;;;4980868;28;20167;-80
2020/12/02 09:59:48;;;;;;;1999.90;999.90;;;5.30;99.90;;;;;;4980393;28;20170;-80
2020/12/02 10:02:23;;;;;;;1999.90;999.90;;;5.20;99.90;;;;;;4980842;28;20266;-80
2020/12/02 10:05:40;;;;;;;1999.90;999.90;;;5.30;99.90;;;;;;4996748;28;20158;-80
2020/12/02 10:08:14;;;;;;;1999.90;999.90;;;5.40;99.90;;;;;;4936614;28;20174;-79
2020/12/02 10:11:32;;;;;;;;;;;;;;;;;;;;;
2020/12/02 10:14:15;;;;;;;1999.90;999.90;;;5.60;99.90;;;;;;4957453;28;20191;-79
2020/12/02 10:17:20;;;;;;;1999.90;999.90;;;5.60;99.90;;;;;;4978436;28;20173;-79
2020/12/02 10:20:19;;;;;;;1999.90;999.90;;;5.70;99.90;;;;;;4978581;28;20162;-80
2020/12/02 10:23:15;;;;;;;1999.90;999.90;;;5.60;99.90;;;;;;4996529;28;20151;-79
2020/12/02 10:25:53;;;;;;;1999.90;999.90;;;5.60;99.90;;;;;;4995833;28;20527;-79
2020/12/02 10:28:46;;;;;;;1999.90;999.90;;;5.70;99.90;;;;;;4978426;28;20194;-78
2020/12/02 10:31:48;;;;;;;1999.90;999.90;;;5.70;99.90;;;;;;4999333;28;20187;-80
2020/12/02 10:34:53;;;;;;;1999.90;999.90;;;5.90;99.90;;;;;;4999356;28;20154;-80
2020/12/02 10:37:39;;;;;;;1999.90;999.90;;;5.90;99.90;;;;;;4970142;28;20155;-79
2020/12/02 10:40:07;;;;;;;1999.90;999.90;;;5.80;99.90;;;;;;4999308;28;20518;-80
2020/12/02 10:42:55;;;;;;;1999.90;999.90;;;5.90;99.90;;;;;;4981377;28;20170;-80
2020/12/02 10:45:23;;;;;;;1999.90;999.90;;;5.90;99.90;;;;;;4999205;28;20173;-80
2020/12/02 10:47:58;;;;;;;1999.90;999.90;;;5.90;99.90;;;;;;4999007;28;20178;-80
2020/12/02 10:50:26;;;;;;;1999.90;999.90;;;5.90;99.90;;;;;;4982536;28;20190;-80
2020/12/02 10:53:00;;;;;;;1999.90;999.90;;;5.90;99.90;;;;;;4981566;28;20680;-79
2020/12/02 10:55:34;;;;;;;1999.90;999.90;;;5.90;99.90;;;;;;4999293;28;20196;-79
2020/12/02 10:58:09;;;;;;;1999.90;999.90;;;6.00;99.90;;;;;;4981976;28;20166;-78
2020/12/02 11:00:35;;;;;;;1999.90;999.90;;;6.00;99.90;;;;;;4999504;28;20151;-80
2020/12/02 11:03:22;;;;;;;1999.90;999.90;;;6.00;99.90;;;;;;4981381;28;20314;-80
2020/12/02 11:06:22;;;;;;;1999.90;999.90;;;6.10;99.90;;;;;;4999390;28;20957;-80
2020/12/02 11:09:08;;;;;;;1999.90;999.90;;;6.30;99.90;;;;;;4942472;28;20178;-80
2020/12/02 11:11:39;;;;;;;1999.90;999.90;;;6.40;99.90;;;;;;4999315;28;20214;-80
2020/12/02 11:14:21;;;;;;;1999.90;999.90;;;6.50;99.90;;;;;;4998907;28;20166;-80
2020/12/02 11:16:56;;;;;;;1999.90;999.90;;;6.50;99.90;;;;;;4998207;28;20163;-79
2020/12/02 11:19:52;;;;;;;1999.90;999.90;;;6.60;99.90;;;;;;4981364;28;20177;-80
2020/12/02 11:22:54;;;;;;;1999.90;999.90;;;6.50;99.90;;;;;;4999396;28;20217;-80
2020/12/02 11:25:50;;;;;;;1999.90;999.90;;;6.40;99.90;;;;;;4999363;28;20158;-80
2020/12/02 11:28:16;;;;;;;1999.90;999.90;;;6.40;99.90;;;;;;4988140;28;20665;-80
2020/12/02 11:30:44;;;;;;;1999.90;999.90;;;6.40;99.90;;;;;;4997625;28;20285;-80
2020/12/02 11:33:26;;;;;;;1999.90;999.90;;;6.30;99.90;;;;;;4980459;28;20426;-80
2020/12/02 11:36:10;;;;;;;1999.90;999.90;;;6.30;99.90;;;;;;4979919;28;20202;-80
2020/12/02 11:39:14;;;;;;;1999.90;999.90;;;6.30;99.90;;;;;;4981212;28;20221;-78
2020/12/02 11:41:52;;;;;;;1999.90;999.90;;;6.20;99.90;;;;;;4980603;28;20193;-80
2020/12/02 11:45:00;;;;;;;1999.90;999.90;;;6.30;99.90;;;;;;4999195;28;20170;-80
2020/12/02 11:47:51;;;;;;;1999.90;999.90;;;6.40;99.90;;;;;;4982766;28;20171;-81
2020/12/02 11:50:23;;;;;;;1999.90;999.90;;;6.40;99.90;;;;;;4999106;28;20190;-80
2020/12/02 11:53:11;;;;;;;1999.90;999.90;;;6.40;99.90;;;;;;4999327;28;20158;-80
2020/12/02 11:55:43;;;;;;;1999.90;999.90;;;6.50;99.90;;;;;;4981771;28;20177;-81
2020/12/02 11:58:11;;;;;;;1999.90;999.90;;;6.50;99.90;;;;;;4982389;28;20179;-80
2020/12/02 12:00:37;;;;;;;1999.90;999.90;;;6.60;99.90;;;;;;4981814;28;20182;-80
2020/12/02 12:03:05;;;;;;;1999.90;999.90;;;6.40;99.90;;;;;;4981550;28;20172;-80
2020/12/02 12:05:44;;;;;;;1999.90;999.90;;;6.30;99.90;;;;;;5000131;28;20405;-79
2020/12/02 12:08:37;;;;;;;1999.90;999.90;;;6.40;99.90;;;;;;4984283;28;20166;-80
2020/12/02 12:11:08;;;;;;;1999.90;999.90;;;6.40;99.90;;;;;;4983148;28;20191;-80
2020/12/02 12:13:44;;;;;;;1999.90;999.90;;;6.30;99.90;;;;;;4981978;28;20261;-80
2020/12/02 12:16:31;;;;;;;1999.90;999.90;;;6.30;99.90;;;;;;4981458;28;20189;-78
2020/12/02 12:19:20;;;;;;;1999.90;999.90;;;6.20;99.90;;;;;;4999655;28;20194;-79
2020/12/02 12:22:17;;;;;;;1999.90;999.90;;;6.30;99.90;;;;;;4987340;28;20183;-80
2020/12/02 12:24:48;;;;;;;1999.90;999.90;;;6.40;99.90;;;;;;4971768;28;20174;-80
2020/12/02 12:27:33;;;;;;;;;;;;;;;;;;;;;
2020/12/02 12:29:59;;;;;;;1999.90;999.90;;;6.50;99.90;;;;;;4998386;28;20675;-80
2020/12/02 12:32:49;;;;;;;1999.90;999.90;;;6.60;99.90;;;;;;4980504;28;20225;-80
2020/12/02 12:35:21;;;;;;;1999.90;999.90;;;6.60;99.90;;;;;;4999456;28;20210;-80
2020/12/02 12:38:23;;;;;;;1999.90;999.90;;;6.60;99.90;;;;;;4999472;28;20155;-80
2020/12/02 12:41:00;;;;;;;1999.90;999.90;;;6.70;99.90;;;;;;4981550;28;20165;-80
2020/12/02 12:43:37;;;;;;;1999.90;999.90;;;6.80;99.90;;;;;;4998972;28;20289;-80
2020/12/02 12:46:17;;;;;;;1999.90;999.90;;;6.80;99.90;;;;;;4999098;28;20217;-80